sensor_id;sensor_type;location;lat;lon;timestamp;pressure;altitude;pressure_sealevel;temperature
76895;BMP280;65855;42.030;13.078;2022-12-29T00:01:57;94581.13;;;3.28
76895;BMP280;65855;42.030;13.078;2022-12-29T00:04:23;94580.91;;;2.94
76895;BMP280;65855;42.030;13.078;2022-12-29T00:06:48;94575.53;;;2.80
76895;BMP280;65855;42.030;13.078;2022-12-29T00:09:15;94578.19;;;3.49
76895;BMP280;65855;42.030;13.078;2022-12-29T00:11:41;94578.00;;;3.33
76895;BMP280;65855;42.030;13.078;2022-12-29T00:14:11;94579.22;;;3.59
76895;BMP280;65855;42.030;13.078;2022-12-29T00:16:56;94580.25;;;3.05
76895;BMP280;65855;42.030;13.078;2022-12-29T00:19:21;94586.41;;;3.03
76895;BMP280;65855;42.030;13.078;2022-12-29T00:22:06;94588.91;;;2.61
76895;BMP280;65855;42.030;13.078;2022-12-29T00:24:50;94587.78;;;2.39
76895;BMP280;65855;42.030;13.078;2022-12-29T00:27:31;94587.97;;;2.14
76895;BMP280;65855;42.030;13.078;2022-12-29T00:30:18;94592.38;;;1.82
76895;BMP280;65855;42.030;13.078;2022-12-29T00:33:19;94590.50;;;1.77
76895;BMP280;65855;42.030;13.078;2022-12-29T00:38:39;94597.66;;;1.91
76895;BMP280;65855;42.030;13.078;2022-12-29T00:41:24;94601.16;;;1.47
76895;BMP280;65855;42.030;13.078;2022-12-29T00:44:11;94598.69;;;0.98
76895;BMP280;65855;42.030;13.078;2022-12-29T00:46:37;94593.09;;;1.02
76895;BMP280;65855;42.030;13.078;2022-12-29T00:49:04;94596.25;;;0.79
76895;BMP280;65855;42.030;13.078;2022-12-29T00:51:49;94591.84;;;0.81
76895;BMP280;65855;42.030;13.078;2022-12-29T00:54:15;94594.22;;;1.19
76895;BMP280;65855;42.030;13.078;2022-12-29T00:56:41;94588.94;;;1.83
76895;BMP280;65855;42.030;13.078;2022-12-29T00:59:08;94596.22;;;3.15
76895;BMP280;65855;42.030;13.078;2022-12-29T01:01:35;94586.53;;;2.48
76895;BMP280;65855;42.030;13.078;2022-12-29T01:04:01;94585.91;;;2.77
76895;BMP280;65855;42.030;13.078;2022-12-29T01:06:26;94591.63;;;2.36
76895;BMP280;65855;42.030;13.078;2022-12-29T01:08:52;94581.09;;;2.10
76895;BMP280;65855;42.030;13.078;2022-12-29T01:11:37;94592.31;;;1.94
76895;BMP280;65855;42.030;13.078;2022-12-29T01:14:03;94589.69;;;2.38
76895;BMP280;65855;42.030;13.078;2022-12-29T01:16:29;94592.91;;;2.62
76895;BMP280;65855;42.030;13.078;2022-12-29T01:18:55;94598.97;;;2.48
76895;BMP280;65855;42.030;13.078;2022-12-29T01:21:20;94588.16;;;2.37
76895;BMP280;65855;42.030;13.078;2022-12-29T01:23:46;94593.50;;;2.64
76895;BMP280;65855;42.030;13.078;2022-12-29T01:26:12;94587.50;;;3.07
76895;BMP280;65855;42.030;13.078;2022-12-29T01:28:39;94590.81;;;2.41
76895;BMP280;65855;42.030;13.078;2022-12-29T01:31:09;94586.28;;;1.78
76895;BMP280;65855;42.030;13.078;2022-12-29T01:33:35;94594.03;;;1.57
76895;BMP280;65855;42.030;13.078;2022-12-29T01:36:01;94600.91;;;1.12
76895;BMP280;65855;42.030;13.078;2022-12-29T01:38:27;94596.41;;;0.96
76895;BMP280;65855;42.030;13.078;2022-12-29T01:40:52;94595.41;;;1.04
76895;BMP280;65855;42.030;13.078;2022-12-29T01:43:18;94592.97;;;0.91
76895;BMP280;65855;42.030;13.078;2022-12-29T01:45:48;94594.72;;;0.78
76895;BMP280;65855;42.030;13.078;2022-12-29T01:48:15;94590.13;;;0.69
76895;BMP280;65855;42.030;13.078;2022-12-29T01:50:49;94589.56;;;0.67
76895;BMP280;65855;42.030;13.078;2022-12-29T01:53:21;94591.31;;;0.60
76895;BMP280;65855;42.030;13.078;2022-12-29T01:55:54;94596.63;;;0.63
76895;BMP280;65855;42.030;13.078;2022-12-29T01:58:22;94590.88;;;0.82
76895;BMP280;65855;42.030;13.078;2022-12-29T02:00:49;94588.53;;;1.06
76895;BMP280;65855;42.030;13.078;2022-12-29T02:03:16;94588.84;;;0.53
76895;BMP280;65855;42.030;13.078;2022-12-29T02:05:51;94584.63;;;0.60
76895;BMP280;65855;42.030;13.078;2022-12-29T02:08:20;94584.44;;;0.43
76895;BMP280;65855;42.030;13.078;2022-12-29T02:10:47;94574.72;;;0.35
76895;BMP280;65855;42.030;13.078;2022-12-29T02:13:16;94576.44;;;0.47
76895;BMP280;65855;42.030;13.078;2022-12-29T02:26:57;94553.03;;;2.27
76895;BMP280;65855;42.030;13.078;2022-12-29T02:32:45;94560.31;;;1.74
76895;BMP280;65855;42.030;13.078;2022-12-29T02:37:45;94545.94;;;2.06
76895;BMP280;65855;42.030;13.078;2022-12-29T02:42:50;94546.91;;;2.71
76895;BMP280;65855;42.030;13.078;2022-12-29T02:50:38;94524.28;;;4.28
76895;BMP280;65855;42.030;13.078;2022-12-29T02:53:11;94526.75;;;3.65
76895;BMP280;65855;42.030;13.078;2022-12-29T02:55:37;94535.75;;;3.95
76895;BMP280;65855;42.030;13.078;2022-12-29T03:00:54;94534.81;;;3.79
76895;BMP280;65855;42.030;13.078;2022-12-29T03:11:40;94527.34;;;2.33
76895;BMP280;65855;42.030;13.078;2022-12-29T03:14:33;94531.13;;;1.93
76895;BMP280;65855;42.030;13.078;2022-12-29T03:20:03;94528.56;;;1.76
76895;BMP280;65855;42.030;13.078;2022-12-29T03:22:31;94535.16;;;1.58
76895;BMP280;65855;42.030;13.078;2022-12-29T03:25:13;94544.03;;;1.11
76895;BMP280;65855;42.030;13.078;2022-12-29T03:28:05;94544.16;;;1.16
76895;BMP280;65855;42.030;13.078;2022-12-29T03:30:34;94547.63;;;1.08
76895;BMP280;65855;42.030;13.078;2022-12-29T03:33:08;94557.19;;;1.11
76895;BMP280;65855;42.030;13.078;2022-12-29T03:35:37;94559.69;;;1.11
76895;BMP280;65855;42.030;13.078;2022-12-29T03:38:09;94558.31;;;1.15
76895;BMP280;65855;42.030;13.078;2022-12-29T03:40:38;94556.63;;;1.03
76895;BMP280;65855;42.030;13.078;2022-12-29T03:43:05;94553.41;;;0.96
76895;BMP280;65855;42.030;13.078;2022-12-29T03:45:30;94556.81;;;1.08
76895;BMP280;65855;42.030;13.078;2022-12-29T03:47:55;94547.97;;;1.24
76895;BMP280;65855;42.030;13.078;2022-12-29T03:50:21;94553.84;;;1.36
76895;BMP280;65855;42.030;13.078;2022-12-29T03:52:47;94545.34;;;1.50
76895;BMP280;65855;42.030;13.078;2022-12-29T03:55:12;94537.44;;;1.59
76895;BMP280;65855;42.030;13.078;2022-12-29T03:57:38;94542.34;;;1.72
76895;BMP280;65855;42.030;13.078;2022-12-29T04:00:04;94538.88;;;1.73
76895;BMP280;65855;42.030;13.078;2022-12-29T04:02:30;94538.28;;;1.77
76895;BMP280;65855;42.030;13.078;2022-12-29T04:04:55;94542.06;;;1.86
76895;BMP280;65855;42.030;13.078;2022-12-29T04:07:21;94540.25;;;1.99
76895;BMP280;65855;42.030;13.078;2022-12-29T04:09:46;94540.91;;;2.13
76895;BMP280;65855;42.030;13.078;2022-12-29T04:12:12;94535.63;;;2.27
76895;BMP280;65855;42.030;13.078;2022-12-29T04:14:38;94538.41;;;2.37
76895;BMP280;65855;42.030;13.078;2022-12-29T04:17:04;94539.16;;;2.37
76895;BMP280;65855;42.030;13.078;2022-12-29T04:19:29;94547.25;;;2.33
76895;BMP280;65855;42.030;13.078;2022-12-29T04:21:54;94551.47;;;2.32
76895;BMP280;65855;42.030;13.078;2022-12-29T04:24:20;94554.31;;;2.36
76895;BMP280;65855;42.030;13.078;2022-12-29T04:26:45;94550.59;;;2.44
76895;BMP280;65855;42.030;13.078;2022-12-29T04:29:11;94551.69;;;2.48
76895;BMP280;65855;42.030;13.078;2022-12-29T04:31:36;94547.53;;;2.42
76895;BMP280;65855;42.030;13.078;2022-12-29T04:34:02;94550.28;;;2.59
76895;BMP280;65855;42.030;13.078;2022-12-29T04:36:27;94545.72;;;2.73
76895;BMP280;65855;42.030;13.078;2022-12-29T04:38:53;94551.41;;;2.39
76895;BMP280;65855;42.030;13.078;2022-12-29T04:41:18;94551.03;;;2.59
76895;BMP280;65855;42.030;13.078;2022-12-29T04:43:43;94560.56;;;2.44
76895;BMP280;65855;42.030;13.078;2022-12-29T04:46:09;94559.75;;;2.86
76895;BMP280;65855;42.030;13.078;2022-12-29T04:48:34;94564.94;;;2.66
76895;BMP280;65855;42.030;13.078;2022-12-29T04:51:00;94560.41;;;2.57
76895;BMP280;65855;42.030;13.078;2022-12-29T04:53:25;94573.13;;;2.49
76895;BMP280;65855;42.030;13.078;2022-12-29T04:55:52;94566.56;;;2.55
76895;BMP280;65855;42.030;13.078;2022-12-29T04:58:18;94574.78;;;2.55
76895;BMP280;65855;42.030;13.078;2022-12-29T05:00:44;94578.03;;;2.56
76895;BMP280;65855;42.030;13.078;2022-12-29T05:03:10;94581.16;;;2.51
76895;BMP280;65855;42.030;13.078;2022-12-29T05:05:35;94577.28;;;2.55
76895;BMP280;65855;42.030;13.078;2022-12-29T05:08:00;94575.16;;;2.35
76895;BMP280;65855;42.030;13.078;2022-12-29T05:10:26;94580.34;;;2.09
76895;BMP280;65855;42.030;13.078;2022-12-29T05:12:51;94575.63;;;2.01
76895;BMP280;65855;42.030;13.078;2022-12-29T05:15:17;94581.75;;;1.99
76895;BMP280;65855;42.030;13.078;2022-12-29T05:17:42;94589.66;;;1.90
76895;BMP280;65855;42.030;13.078;2022-12-29T05:20:08;94581.06;;;1.86
76895;BMP280;65855;42.030;13.078;2022-12-29T05:22:34;94573.97;;;1.89
76895;BMP280;65855;42.030;13.078;2022-12-29T05:24:59;94573.59;;;2.16
76895;BMP280;65855;42.030;13.078;2022-12-29T05:27:25;94573.19;;;2.85
76895;BMP280;65855;42.030;13.078;2022-12-29T05:29:50;94574.69;;;3.96
76895;BMP280;65855;42.030;13.078;2022-12-29T05:32:16;94564.22;;;4.62
76895;BMP280;65855;42.030;13.078;2022-12-29T05:34:41;94565.00;;;4.51
76895;BMP280;65855;42.030;13.078;2022-12-29T05:37:07;94569.53;;;4.88
76895;BMP280;65855;42.030;13.078;2022-12-29T05:39:32;94577.25;;;4.86
76895;BMP280;65855;42.030;13.078;2022-12-29T05:41:57;94574.38;;;5.28
76895;BMP280;65855;42.030;13.078;2022-12-29T05:44:23;94571.03;;;5.23
76895;BMP280;65855;42.030;13.078;2022-12-29T05:46:48;94569.06;;;5.52
76895;BMP280;65855;42.030;13.078;2022-12-29T05:49:15;94562.50;;;5.74
76895;BMP280;65855;42.030;13.078;2022-12-29T05:51:41;94565.72;;;5.85
76895;BMP280;65855;42.030;13.078;2022-12-29T05:54:06;94575.56;;;5.75
76895;BMP280;65855;42.030;13.078;2022-12-29T05:56:32;94579.69;;;5.59
76895;BMP280;65855;42.030;13.078;2022-12-29T05:58:57;94577.38;;;5.41
76895;BMP280;65855;42.030;13.078;2022-12-29T06:01:23;94580.47;;;5.21
76895;BMP280;65855;42.030;13.078;2022-12-29T06:03:48;94580.50;;;4.76
76895;BMP280;65855;42.030;13.078;2022-12-29T06:06:14;94584.31;;;4.67
76895;BMP280;65855;42.030;13.078;2022-12-29T06:08:39;94580.06;;;4.56
76895;BMP280;65855;42.030;13.078;2022-12-29T06:11:05;94584.44;;;4.38
76895;BMP280;65855;42.030;13.078;2022-12-29T06:13:30;94578.09;;;4.35
76895;BMP280;65855;42.030;13.078;2022-12-29T06:15:55;94582.22;;;4.19
76895;BMP280;65855;42.030;13.078;2022-12-29T06:18:21;94580.34;;;4.03
76895;BMP280;65855;42.030;13.078;2022-12-29T06:20:47;94586.38;;;3.96
76895;BMP280;65855;42.030;13.078;2022-12-29T06:23:12;94574.72;;;4.07
76895;BMP280;65855;42.030;13.078;2022-12-29T06:25:38;94579.53;;;3.91
76895;BMP280;65855;42.030;13.078;2022-12-29T06:28:04;94583.50;;;3.23
76895;BMP280;65855;42.030;13.078;2022-12-29T06:30:30;94578.59;;;3.17
76895;BMP280;65855;42.030;13.078;2022-12-29T06:32:56;94581.06;;;3.35
76895;BMP280;65855;42.030;13.078;2022-12-29T06:35:22;94587.50;;;3.71
76895;BMP280;65855;42.030;13.078;2022-12-29T06:37:48;94589.28;;;3.82
76895;BMP280;65855;42.030;13.078;2022-12-29T06:40:14;94581.28;;;3.62
76895;BMP280;65855;42.030;13.078;2022-12-29T06:42:39;94591.66;;;3.30
76895;BMP280;65855;42.030;13.078;2022-12-29T06:45:06;94586.47;;;3.32
76895;BMP280;65855;42.030;13.078;2022-12-29T06:47:33;94588.88;;;3.20
76895;BMP280;65855;42.030;13.078;2022-12-29T06:49:59;94585.34;;;2.92
76895;BMP280;65855;42.030;13.078;2022-12-29T06:52:24;94577.13;;;3.10
76895;BMP280;65855;42.030;13.078;2022-12-29T06:54:50;94583.41;;;3.12
76895;BMP280;65855;42.030;13.078;2022-12-29T06:57:15;94581.59;;;3.54
76895;BMP280;65855;42.030;13.078;2022-12-29T06:59:41;94583.78;;;3.62
76895;BMP280;65855;42.030;13.078;2022-12-29T07:02:06;94583.41;;;3.30
76895;BMP280;65855;42.030;13.078;2022-12-29T07:04:31;94585.09;;;3.18
76895;BMP280;65855;42.030;13.078;2022-12-29T07:06:57;94579.47;;;3.05
76895;BMP280;65855;42.030;13.078;2022-12-29T07:09:22;94585.09;;;3.18
76895;BMP280;65855;42.030;13.078;2022-12-29T07:11:48;94592.56;;;3.35
76895;BMP280;65855;42.030;13.078;2022-12-29T07:14:13;94587.66;;;3.58
76895;BMP280;65855;42.030;13.078;2022-12-29T07:16:39;94592.41;;;3.77
76895;BMP280;65855;42.030;13.078;2022-12-29T07:19:04;94590.28;;;3.92
76895;BMP280;65855;42.030;13.078;2022-12-29T07:21:30;94595.84;;;4.05
76895;BMP280;65855;42.030;13.078;2022-12-29T07:23:56;94596.81;;;3.93
76895;BMP280;65855;42.030;13.078;2022-12-29T07:26:22;94599.75;;;4.01
76895;BMP280;65855;42.030;13.078;2022-12-29T07:28:47;94611.03;;;4.04
76895;BMP280;65855;42.030;13.078;2022-12-29T07:31:18;94615.50;;;4.13
76895;BMP280;65855;42.030;13.078;2022-12-29T07:33:44;94620.44;;;4.42
76895;BMP280;65855;42.030;13.078;2022-12-29T07:36:11;94618.75;;;4.65
76895;BMP280;65855;42.030;13.078;2022-12-29T07:38:37;94606.25;;;4.87
76895;BMP280;65855;42.030;13.078;2022-12-29T07:41:03;94618.53;;;5.00
76895;BMP280;65855;42.030;13.078;2022-12-29T07:43:28;94613.84;;;4.92
76895;BMP280;65855;42.030;13.078;2022-12-29T07:45:54;94618.75;;;4.87
76895;BMP280;65855;42.030;13.078;2022-12-29T07:48:19;94620.72;;;4.97
76895;BMP280;65855;42.030;13.078;2022-12-29T07:50:45;94619.50;;;4.99
76895;BMP280;65855;42.030;13.078;2022-12-29T07:53:10;94618.19;;;5.08
76895;BMP280;65855;42.030;13.078;2022-12-29T07:55:36;94617.53;;;5.24
76895;BMP280;65855;42.030;13.078;2022-12-29T07:58:02;94616.31;;;5.37
76895;BMP280;65855;42.030;13.078;2022-12-29T08:00:27;94617.66;;;5.67
76895;BMP280;65855;42.030;13.078;2022-12-29T08:02:53;94624.78;;;5.86
76895;BMP280;65855;42.030;13.078;2022-12-29T08:05:18;94621.66;;;6.23
76895;BMP280;65855;42.030;13.078;2022-12-29T08:07:44;94622.53;;;6.93
76895;BMP280;65855;42.030;13.078;2022-12-29T08:10:11;94613.84;;;7.17
76895;BMP280;65855;42.030;13.078;2022-12-29T08:12:40;94618.50;;;7.29
76895;BMP280;65855;42.030;13.078;2022-12-29T08:15:08;94621.19;;;6.37
76895;BMP280;65855;42.030;13.078;2022-12-29T08:17:34;94607.97;;;6.58
76895;BMP280;65855;42.030;13.078;2022-12-29T08:19:59;94611.38;;;6.84
76895;BMP280;65855;42.030;13.078;2022-12-29T08:22:25;94614.25;;;7.09
76895;BMP280;65855;42.030;13.078;2022-12-29T08:24:51;94620.13;;;6.66
76895;BMP280;65855;42.030;13.078;2022-12-29T08:27:17;94617.66;;;6.87
76895;BMP280;65855;42.030;13.078;2022-12-29T08:29:42;94624.03;;;8.15
76895;BMP280;65855;42.030;13.078;2022-12-29T08:32:08;94611.91;;;8.64
76895;BMP280;65855;42.030;13.078;2022-12-29T08:34:33;94610.03;;;8.81
76895;BMP280;65855;42.030;13.078;2022-12-29T08:36:59;94611.25;;;9.19
76895;BMP280;65855;42.030;13.078;2022-12-29T08:39:24;94602.19;;;9.13
76895;BMP280;65855;42.030;13.078;2022-12-29T08:41:50;94601.94;;;9.65
76895;BMP280;65855;42.030;13.078;2022-12-29T08:44:16;94598.00;;;11.41
76895;BMP280;65855;42.030;13.078;2022-12-29T08:46:41;94597.53;;;11.19
76895;BMP280;65855;42.030;13.078;2022-12-29T08:49:07;94592.03;;;12.27
76895;BMP280;65855;42.030;13.078;2022-12-29T08:51:32;94593.38;;;12.85
76895;BMP280;65855;42.030;13.078;2022-12-29T08:53:59;94589.34;;;13.35
76895;BMP280;65855;42.030;13.078;2022-12-29T08:56:24;94592.28;;;13.70
76895;BMP280;65855;42.030;13.078;2022-12-29T08:58:51;94588.81;;;14.57
76895;BMP280;65855;42.030;13.078;2022-12-29T09:01:17;94597.06;;;14.98
76895;BMP280;65855;42.030;13.078;2022-12-29T09:03:42;94581.84;;;14.80
76895;BMP280;65855;42.030;13.078;2022-12-29T09:06:08;94581.09;;;14.80
76895;BMP280;65855;42.030;13.078;2022-12-29T09:08:33;94586.81;;;15.03
76895;BMP280;65855;42.030;13.078;2022-12-29T09:11:19;94588.38;;;15.70
76895;BMP280;65855;42.030;13.078;2022-12-29T09:13:45;94589.13;;;15.71
76895;BMP280;65855;42.030;13.078;2022-12-29T09:16:11;94591.19;;;15.95
76895;BMP280;65855;42.030;13.078;2022-12-29T09:18:37;94591.25;;;16.17
76895;BMP280;65855;42.030;13.078;2022-12-29T09:21:04;94581.63;;;16.01
76895;BMP280;65855;42.030;13.078;2022-12-29T09:23:31;94585.22;;;17.04
76895;BMP280;65855;42.030;13.078;2022-12-29T09:25:56;94578.88;;;17.70
76895;BMP280;65855;42.030;13.078;2022-12-29T09:28:23;94576.69;;;17.47
76895;BMP280;65855;42.030;13.078;2022-12-29T09:30:49;94574.97;;;17.26
76895;BMP280;65855;42.030;13.078;2022-12-29T09:33:15;94576.34;;;17.32
76895;BMP280;65855;42.030;13.078;2022-12-29T09:35:44;94577.13;;;17.49
76895;BMP280;65855;42.030;13.078;2022-12-29T09:38:10;94572.81;;;17.96
76895;BMP280;65855;42.030;13.078;2022-12-29T09:40:37;94570.91;;;17.71
76895;BMP280;65855;42.030;13.078;2022-12-29T09:43:33;94565.09;;;17.87
76895;BMP280;65855;42.030;13.078;2022-12-29T09:46:18;94571.75;;;18.05
76895;BMP280;65855;42.030;13.078;2022-12-29T09:49:04;94566.06;;;18.58
76895;BMP280;65855;42.030;13.078;2022-12-29T09:51:32;94562.19;;;18.85
76895;BMP280;65855;42.030;13.078;2022-12-29T09:56:50;94550.06;;;19.19
76895;BMP280;65855;42.030;13.078;2022-12-29T09:59:22;94553.63;;;19.72
76895;BMP280;65855;42.030;13.078;2022-12-29T10:01:54;94546.00;;;19.55
76895;BMP280;65855;42.030;13.078;2022-12-29T10:04:22;94545.81;;;19.31
76895;BMP280;65855;42.030;13.078;2022-12-29T10:06:56;94548.03;;;19.33
76895;BMP280;65855;42.030;13.078;2022-12-29T10:21:04;94540.53;;;19.28
76895;BMP280;65855;42.030;13.078;2022-12-29T10:25:54;94529.31;;;20.26
76895;BMP280;65855;42.030;13.078;2022-12-29T10:28:41;94528.50;;;20.14
76895;BMP280;65855;42.030;13.078;2022-12-29T10:31:14;94532.09;;;19.93
76895;BMP280;65855;42.030;13.078;2022-12-29T10:33:42;94519.25;;;20.21
76895;BMP280;65855;42.030;13.078;2022-12-29T10:36:16;94510.59;;;21.09
76895;BMP280;65855;42.030;13.078;2022-12-29T10:38:51;94513.22;;;20.77
76895;BMP280;65855;42.030;13.078;2022-12-29T10:41:30;94511.47;;;19.04
76895;BMP280;65855;42.030;13.078;2022-12-29T10:43:59;94511.75;;;19.39
76895;BMP280;65855;42.030;13.078;2022-12-29T10:46:29;94502.72;;;19.42
76895;BMP280;65855;42.030;13.078;2022-12-29T10:48:55;94500.44;;;19.12
76895;BMP280;65855;42.030;13.078;2022-12-29T10:51:26;94501.25;;;20.29
76895;BMP280;65855;42.030;13.078;2022-12-29T10:53:59;94495.59;;;21.31
76895;BMP280;65855;42.030;13.078;2022-12-29T10:56:29;94494.03;;;21.89
76895;BMP280;65855;42.030;13.078;2022-12-29T10:58:59;94490.34;;;20.72
76895;BMP280;65855;42.030;13.078;2022-12-29T11:01:31;94484.63;;;21.93
76895;BMP280;65855;42.030;13.078;2022-12-29T11:04:08;94478.09;;;22.34
76895;BMP280;65855;42.030;13.078;2022-12-29T11:06:43;94479.53;;;22.47
76895;BMP280;65855;42.030;13.078;2022-12-29T11:09:24;94472.88;;;23.79
76895;BMP280;65855;42.030;13.078;2022-12-29T11:11:52;94484.84;;;22.00
76895;BMP280;65855;42.030;13.078;2022-12-29T11:14:20;94471.34;;;22.57
76895;BMP280;65855;42.030;13.078;2022-12-29T11:16:59;94466.56;;;24.48
76895;BMP280;65855;42.030;13.078;2022-12-29T11:19:27;94466.50;;;24.44
76895;BMP280;65855;42.030;13.078;2022-12-29T11:21:54;94457.91;;;24.18
76895;BMP280;65855;42.030;13.078;2022-12-29T11:27:10;94462.22;;;20.32
76895;BMP280;65855;42.030;13.078;2022-12-29T11:29:41;94459.72;;;20.04
76895;BMP280;65855;42.030;13.078;2022-12-29T11:34:37;94463.69;;;18.79
76895;BMP280;65855;42.030;13.078;2022-12-29T11:37:06;94463.91;;;19.03
76895;BMP280;65855;42.030;13.078;2022-12-29T11:39:39;94452.47;;;20.58
76895;BMP280;65855;42.030;13.078;2022-12-29T11:42:12;94466.03;;;17.56
76895;BMP280;65855;42.030;13.078;2022-12-29T11:44:43;94460.66;;;17.11
76895;BMP280;65855;42.030;13.078;2022-12-29T11:47:13;94454.72;;;18.65
76895;BMP280;65855;42.030;13.078;2022-12-29T11:49:49;94460.91;;;16.20
76895;BMP280;65855;42.030;13.078;2022-12-29T11:52:15;94461.00;;;16.96
76895;BMP280;65855;42.030;13.078;2022-12-29T11:54:42;94453.59;;;16.27
76895;BMP280;65855;42.030;13.078;2022-12-29T11:57:15;94452.81;;;20.36
76895;BMP280;65855;42.030;13.078;2022-12-29T11:59:52;94452.16;;;17.24
76895;BMP280;65855;42.030;13.078;2022-12-29T12:04:48;94445.28;;;17.41
76895;BMP280;65855;42.030;13.078;2022-12-29T12:07:27;94449.25;;;14.70
76895;BMP280;65855;42.030;13.078;2022-12-29T12:10:01;94444.66;;;16.29
76895;BMP280;65855;42.030;13.078;2022-12-29T12:12:31;94445.16;;;15.96
76895;BMP280;65855;42.030;13.078;2022-12-29T12:15:02;94444.50;;;15.08
76895;BMP280;65855;42.030;13.078;2022-12-29T12:17:31;94441.81;;;15.74
76895;BMP280;65855;42.030;13.078;2022-12-29T12:22:40;94428.97;;;16.35
76895;BMP280;65855;42.030;13.078;2022-12-29T12:25:17;94423.69;;;17.55
76895;BMP280;65855;42.030;13.078;2022-12-29T12:28:18;94415.06;;;19.53
76895;BMP280;65855;42.030;13.078;2022-12-29T12:30:48;94418.81;;;21.50
76895;BMP280;65855;42.030;13.078;2022-12-29T12:36:53;94422.81;;;16.28
76895;BMP280;65855;42.030;13.078;2022-12-29T13:01:44;94396.53;;;15.98
76895;BMP280;65855;42.030;13.078;2022-12-29T13:07:28;94399.50;;;17.19
76895;BMP280;65855;42.030;13.078;2022-12-29T13:26:10;94402.47;;;16.36
76895;BMP280;65855;42.030;13.078;2022-12-29T13:31:34;94414.66;;;15.27
76895;BMP280;65855;42.030;13.078;2022-12-29T13:37:16;94404.69;;;14.90
76895;BMP280;65855;42.030;13.078;2022-12-29T13:39:47;94404.13;;;14.41
76895;BMP280;65855;42.030;13.078;2022-12-29T13:42:16;94408.50;;;13.91
76895;BMP280;65855;42.030;13.078;2022-12-29T13:44:46;94408.94;;;13.74
76895;BMP280;65855;42.030;13.078;2022-12-29T13:49:56;94410.63;;;13.47
76895;BMP280;65855;42.030;13.078;2022-12-29T13:52:35;94413.41;;;13.28
76895;BMP280;65855;42.030;13.078;2022-12-29T13:55:41;94408.50;;;13.91
76895;BMP280;65855;42.030;13.078;2022-12-29T14:00:52;94405.56;;;13.66
76895;BMP280;65855;42.030;13.078;2022-12-29T14:03:43;94401.97;;;14.03
76895;BMP280;65855;42.030;13.078;2022-12-29T14:08:42;94405.53;;;13.29
76895;BMP280;65855;42.030;13.078;2022-12-29T14:11:10;94411.91;;;13.63
76895;BMP280;65855;42.030;13.078;2022-12-29T14:13:41;94407.41;;;13.60
76895;BMP280;65855;42.030;13.078;2022-12-29T14:16:21;94413.47;;;13.23
76895;BMP280;65855;42.030;13.078;2022-12-29T14:18:49;94407.69;;;13.41
76895;BMP280;65855;42.030;13.078;2022-12-29T14:23:42;94418.56;;;12.54
76895;BMP280;65855;42.030;13.078;2022-12-29T14:26:16;94415.53;;;12.29
76895;BMP280;65855;42.030;13.078;2022-12-29T14:28:49;94408.75;;;12.75
76895;BMP280;65855;42.030;13.078;2022-12-29T14:33:41;94408.75;;;11.11
76895;BMP280;65855;42.030;13.078;2022-12-29T14:36:20;94418.03;;;10.68
76895;BMP280;65855;42.030;13.078;2022-12-29T14:38:46;94411.00;;;10.51
76895;BMP280;65855;42.030;13.078;2022-12-29T14:41:18;94415.56;;;10.49
76895;BMP280;65855;42.030;13.078;2022-12-29T14:43:54;94413.75;;;10.59
76895;BMP280;65855;42.030;13.078;2022-12-29T14:46:21;94418.63;;;10.26
76895;BMP280;65855;42.030;13.078;2022-12-29T14:48:46;94414.84;;;10.09
76895;BMP280;65855;42.030;13.078;2022-12-29T14:51:41;94420.94;;;9.93
76895;BMP280;65855;42.030;13.078;2022-12-29T14:56:59;94416.03;;;9.13
76895;BMP280;65855;42.030;13.078;2022-12-29T14:59:28;94426.53;;;8.96
76895;BMP280;65855;42.030;13.078;2022-12-29T15:01:55;94421.41;;;8.71
76895;BMP280;65855;42.030;13.078;2022-12-29T15:04:25;94417.97;;;8.92
76895;BMP280;65855;42.030;13.078;2022-12-29T15:06:51;94410.44;;;8.37
76895;BMP280;65855;42.030;13.078;2022-12-29T15:11:55;94415.44;;;8.32
76895;BMP280;65855;42.030;13.078;2022-12-29T15:14:36;94413.63;;;8.27
76895;BMP280;65855;42.030;13.078;2022-12-29T15:17:10;94407.81;;;8.17
76895;BMP280;65855;42.030;13.078;2022-12-29T15:19:36;94408.56;;;8.22
76895;BMP280;65855;42.030;13.078;2022-12-29T15:22:02;94409.75;;;8.05
76895;BMP280;65855;42.030;13.078;2022-12-29T15:24:28;94413.50;;;7.77
76895;BMP280;65855;42.030;13.078;2022-12-29T15:26:54;94412.09;;;7.55
76895;BMP280;65855;42.030;13.078;2022-12-29T15:29:39;94416.44;;;7.38
76895;BMP280;65855;42.030;13.078;2022-12-29T15:35:29;94418.13;;;7.59
76895;BMP280;65855;42.030;13.078;2022-12-29T15:37:55;94415.84;;;7.57
76895;BMP280;65855;42.030;13.078;2022-12-29T15:40:31;94421.22;;;7.66
76895;BMP280;65855;42.030;13.078;2022-12-29T15:43:40;94419.47;;;7.14
76895;BMP280;65855;42.030;13.078;2022-12-29T15:46:00;94426.72;;;7.11
76895;BMP280;65855;42.030;13.078;2022-12-29T15:48:26;94423.16;;;7.33
76895;BMP280;65855;42.030;13.078;2022-12-29T15:50:51;94411.91;;;7.35
76895;BMP280;65855;42.030;13.078;2022-12-29T15:53:30;94412.28;;;7.22
76895;BMP280;65855;42.030;13.078;2022-12-29T15:56:01;94417.91;;;6.87
76895;BMP280;65855;42.030;13.078;2022-12-29T15:58:40;94410.28;;;6.98
76895;BMP280;65855;42.030;13.078;2022-12-29T16:01:26;94417.16;;;6.87
76895;BMP280;65855;42.030;13.078;2022-12-29T16:03:52;94420.69;;;6.65
76895;BMP280;65855;42.030;13.078;2022-12-29T16:06:28;94416.72;;;6.90
76895;BMP280;65855;42.030;13.078;2022-12-29T16:09:01;94416.47;;;6.91
76895;BMP280;65855;42.030;13.078;2022-12-29T16:11:35;94417.66;;;7.10
76895;BMP280;65855;42.030;13.078;2022-12-29T16:14:02;94415.19;;;6.89
76895;BMP280;65855;42.030;13.078;2022-12-29T16:16:35;94411.63;;;6.43
76895;BMP280;65855;42.030;13.078;2022-12-29T16:19:13;94417.66;;;6.84
76895;BMP280;65855;42.030;13.078;2022-12-29T16:21:40;94414.59;;;7.03
76895;BMP280;65855;42.030;13.078;2022-12-29T16:24:11;94418.31;;;7.00
76895;BMP280;65855;42.030;13.078;2022-12-29T16:26:37;94418.34;;;6.79
76895;BMP280;65855;42.030;13.078;2022-12-29T16:29:06;94424.75;;;6.92
76895;BMP280;65855;42.030;13.078;2022-12-29T16:31:59;94425.09;;;6.79
76895;BMP280;65855;42.030;13.078;2022-12-29T16:39:47;94425.56;;;6.55
76895;BMP280;65855;42.030;13.078;2022-12-29T16:45:38;94424.53;;;6.72
76895;BMP280;65855;42.030;13.078;2022-12-29T16:48:20;94420.38;;;6.40